Time;durP1;ratioP1;P1;durP2;ratioP2;P2;SDS_P1;SDS_P2;PMS_P1;PMS_P2;Temp;Humidity;BMP_temperature;BMP_pressure;BME280_temperature;BME280_humidity;BME280_pressure;Samples;Min_cycle;Max_cycle;Signal;HPM_P1;HPM_P2
2021/06/19 00:00:04;;;;;;;9.20;5.90;;;;;;;23.48;59.92;101000.16;5112602;28;20196;-74
2021/06/19 00:02:33;;;;;;;7.77;6.40;;;;;;;23.45;59.98;101006.00;5107875;28;20203;-73
2021/06/19 00:05:02;;;;;;;9.70;6.50;;;;;;;23.37;60.17;100998.69;5112555;28;20814;-74
2021/06/19 00:07:30;;;;;;;7.63;6.10;;;;;;;23.31;60.20;101006.78;5109430;28;20935;-74
2021/06/19 00:09:59;;;;;;;8.70;6.80;;;;;;;23.23;61.16;101005.78;5109086;28;20196;-74
2021/06/19 00:12:27;;;;;;;11.30;7.50;;;;;;;23.18;60.83;101004.63;5111990;28;20199;-73
2021/06/19 00:14:56;;;;;;;9.83;7.20;;;;;;;23.09;60.93;100994.75;5112687;28;20224;-73
2021/06/19 00:17:24;;;;;;;9.13;7.13;;;;;;;23.13;60.39;101007.91;5112163;28;20202;-74
2021/06/19 00:19:52;;;;;;;8.23;6.80;;;;;;;22.85;60.47;100957.34;5112438;28;20188;-73
2021/06/19 00:22:20;;;;;;;10.27;6.60;;;;;;;23.10;60.58;101008.25;5110710;28;20207;-73
2021/06/19 00:24:48;;;;;;;8.07;6.60;;;;;;;23.05;61.21;101013.44;5110222;28;20200;-73
2021/06/19 00:27:17;;;;;;;9.87;6.80;;;;;;;22.98;61.63;101004.22;5112062;28;20543;-73
2021/06/19 00:29:46;;;;;;;9.90;7.43;;;;;;;22.91;61.96;101001.31;5112044;28;20194;-73
2021/06/19 00:32:14;;;;;;;11.83;7.67;;;;;;;22.88;61.32;101004.41;5097981;28;20196;-72
2021/06/19 00:34:42;;;;;;;9.40;7.30;;;;;;;22.80;61.05;100988.00;5112131;27;20705;-73
2021/06/19 00:37:10;;;;;;;9.73;7.13;;;;;;;22.88;60.93;101011.78;5111717;28;20574;-73
2021/06/19 00:39:38;;;;;;;8.93;7.03;;;;;;;22.85;60.92;101009.41;5111770;27;20692;-73
2021/06/19 00:42:06;;;;;;;12.03;7.53;;;;;;;22.56;61.68;100977.97;5110919;28;20200;-73
2021/06/19 00:44:36;;;;;;;8.33;6.97;;;;;;;22.70;62.00;101012.00;5111668;28;20710;-73
2021/06/19 00:47:04;;;;;;;9.87;7.20;;;;;;;22.65;62.11;101008.06;5096956;27;20253;-73
2021/06/19 00:49:32;;;;;;;8.87;7.20;;;;;;;22.58;63.00;100992.34;5111532;28;20220;-73
2021/06/19 00:52:00;;;;;;;12.13;7.90;;;;;;;22.51;62.96;100996.81;5111379;28;20214;-73
2021/06/19 00:54:28;;;;;;;12.23;7.70;;;;;;;22.42;62.92;101000.63;5111922;28;20599;-72
2021/06/19 00:56:57;;;;;;;10.50;7.70;;;;;;;22.36;63.34;100998.59;5110598;28;20643;-73
2021/06/19 00:59:25;;;;;;;11.10;8.10;;;;;;;22.31;63.41;100990.00;5106862;28;20566;-73
2021/06/19 01:01:55;;;;;;;13.47;8.37;;;;;;;22.28;63.06;100983.00;5111208;28;20256;-74
2021/06/19 01:04:23;;;;;;;10.27;7.67;;;;;;;22.29;63.01;100987.44;5111368;28;20219;-73
2021/06/19 01:06:51;;;;;;;11.30;7.53;;;;;;;22.30;62.08;100991.03;5095232;28;20200;-73
2021/06/19 01:09:19;;;;;;;11.90;7.70;;;;;;;22.28;62.62;100990.38;5101878;28;20207;-73
2021/06/19 01:11:48;;;;;;;10.30;7.30;;;;;;;22.31;62.31;100995.50;5111118;28;20256;-73
2021/06/19 01:14:16;;;;;;;8.87;6.80;;;;;;;22.31;62.08;101000.97;5110774;28;20199;-74
2021/06/19 01:16:47;;;;;;;12.13;7.37;;;;;;;22.18;61.63;100978.75;5111497;28;20740;-74
2021/06/19 01:19:17;;;;;;;9.53;7.33;;;;;;;22.22;61.54;100985.59;5111174;28;20218;-73
2021/06/19 01:21:45;;;;;;;9.03;6.87;;;;;;;22.21;62.38;100990.22;5110407;28;20207;-73
2021/06/19 01:24:14;;;;;;;11.17;7.20;;;;;;;22.21;62.48;101000.31;5109668;28;20204;-73
2021/06/19 01:26:44;;;;;;;9.30;6.83;;;;;;;22.19;62.43;100997.75;5094942;28;20207;-73
2021/06/19 01:29:12;;;;;;;8.10;6.60;;;;;;;22.20;62.33;100996.72;5109638;28;20538;-73
2021/06/19 01:31:41;;;;;;;9.87;7.40;;;;;;;22.17;63.26;101001.69;5109140;27;20195;-73
2021/06/19 01:34:09;;;;;;;9.30;7.10;;;;;;;22.11;63.23;101000.50;5109377;28;20184;-73
2021/06/19 01:36:37;;;;;;;9.50;7.07;;;;;;;22.09;63.27;101010.75;5110792;28;20718;-73
2021/06/19 01:39:09;;;;;;;9.83;7.03;;;;;;;22.07;63.52;101014.69;5110504;28;20216;-73
2021/06/19 01:41:38;;;;;;;10.37;7.53;;;;;;;21.67;66.49;101019.94;5094367;28;20215;-73
2021/06/19 01:44:08;;;;;;;11.27;7.80;;;;;;;21.46;68.16;100994.97;5108876;28;20718;-73
2021/06/19 01:46:39;;;;;;;12.67;7.67;;;;;;;21.54;67.73;101018.72;5108948;28;20207;-73
2021/06/19 01:49:08;;;;;;;10.20;7.80;;;;;;;21.45;68.97;101020.59;5107053;28;20298;-73
2021/06/19 01:51:36;;;;;;;14.10;8.77;;;;;;;21.27;69.79;101001.59;5103888;28;20204;-73
2021/06/19 01:54:05;;;;;;;11.87;8.57;;;;;;;21.35;70.09;101019.88;5110325;28;20211;-74
2021/06/19 01:56:33;;;;;;;14.93;8.77;;;;;;;21.13;70.43;100993.16;5099724;28;20258;-73
2021/06/19 01:59:01;;;;;;;10.90;8.10;;;;;;;21.38;69.17;101014.94;5109584;28;20212;-73
2021/06/19 02:01:30;;;;;;;12.33;8.33;;;;;;;21.42;69.48;101017.31;5110525;28;20638;-73
2021/06/19 02:03:59;;;;;;;11.53;8.40;;;;;;;21.37;69.72;101012.38;5108496;28;20224;-73
2021/06/19 02:06:27;;;;;;;12.20;8.63;;;;;;;21.46;68.68;101010.53;5107036;28;20207;-73
2021/06/19 02:09:06;;;;;;;11.67;7.93;;;;;;;21.60;67.80;101023.53;5111571;28;20281;-73
2021/06/19 02:11:37;;;;;;;10.87;7.23;;;;;;;21.68;66.39;101015.31;5103655;27;20204;-73
2021/06/19 02:14:06;;;;;;;11.50;8.17;;;;;;;21.70;65.92;101025.06;5111936;28;20211;-73
2021/06/19 02:16:35;;;;;;;11.83;8.00;;;;;;;21.67;66.63;101016.34;5113599;28;20224;-73
2021/06/19 02:19:03;;;;;;;10.90;7.90;;;;;;;21.58;67.71;101026.41;5113830;28;20222;-73
2021/06/19 02:21:31;;;;;;;10.77;8.27;;;;;;;21.55;66.89;101026.75;5113438;27;20203;-72
2021/06/19 02:23:59;;;;;;;11.37;7.90;;;;;;;21.47;67.23;101028.63;5113752;28;20196;-73
2021/06/19 02:26:27;;;;;;;15.37;7.97;;;;;;;21.45;67.33;101025.22;5113315;28;20583;-74
2021/06/19 02:28:55;;;;;;;17.20;8.37;;;;;;;21.43;67.36;101022.66;5113376;28;20196;-74
2021/06/19 02:31:24;;;;;;;14.87;8.57;;;;;;;21.42;67.30;101020.91;5114425;28;20203;-73
2021/06/19 02:33:54;;;;;;;12.53;8.27;;;;;;;21.31;68.20;101034.91;5114037;27;20231;-74
2021/06/19 02:36:22;;;;;;;12.80;8.10;;;;;;;21.52;67.65;101028.97;5113934;28;20203;-74
2021/06/19 02:38:50;;;;;;;15.53;7.70;;;;;;;21.63;67.61;101029.50;5101031;28;20200;-74
2021/06/19 02:41:18;;;;;;;10.43;7.63;;;;;;;21.84;67.18;101028.16;5111390;28;20309;-74
2021/06/19 02:43:46;;;;;;;14.80;7.90;;;;;;;22.08;66.11;101025.47;5113120;28;20199;-74
2021/06/19 02:46:15;;;;;;;11.80;8.13;;;;;;;22.19;65.44;101032.47;5112946;28;20794;-74
2021/06/19 02:48:43;;;;;;;13.47;7.73;;;;;;;22.20;65.64;101025.97;5114149;28;20203;-74
2021/06/19 02:51:12;;;;;;;12.73;7.80;;;;;;;22.33;65.15;101041.84;5113009;28;20203;-74
2021/06/19 02:53:40;;;;;;;10.97;7.70;;;;;;;22.46;65.06;101033.97;5113603;28;20606;-74
2021/06/19 02:56:08;;;;;;;11.83;8.10;;;;;;;22.70;64.04;101039.41;5113832;28;20210;-74
2021/06/19 02:58:36;;;;;;;12.70;8.40;;;;;;;22.67;63.63;101036.16;5112429;28;20868;-74
2021/06/19 03:01:08;;;;;;;12.23;7.60;;;;;;;22.86;63.53;101044.84;5113867;28;20224;-73
2021/06/19 03:03:36;;;;;;;9.93;7.63;;;;;;;22.49;62.72;101020.78;5113435;28;21026;-73
2021/06/19 03:06:05;;;;;;;9.57;7.20;;;;;;;22.65;62.57;101027.22;5113340;28;20206;-74
2021/06/19 03:08:34;;;;;;;10.63;7.37;;;;;;;22.45;63.05;101041.31;5113193;28;20215;-73
2021/06/19 03:11:04;;;;;;;11.63;7.57;;;;;;;22.29;62.87;101042.19;5113368;28;20198;-73
2021/06/19 03:13:32;;;;;;;12.90;7.43;;;;;;;22.08;63.49;101039.16;5110530;28;20219;-73
2021/06/19 03:16:00;;;;;;;12.50;7.53;;;;;;;21.98;63.60;101042.00;5113523;28;20714;-73
2021/06/19 03:18:29;;;;;;;12.47;7.63;;;;;;;21.78;64.58;101054.31;5112837;28;20204;-74
2021/06/19 03:20:57;;;;;;;10.23;7.87;;;;;;;21.56;65.59;101052.22;5113207;28;20211;-74
2021/06/19 03:23:25;;;;;;;13.87;7.53;;;;;;;21.52;65.63;101048.13;5111860;28;20245;-74
2021/06/19 03:25:54;;;;;;;14.60;7.90;;;;;;;21.42;66.25;101053.72;5112869;28;20650;-74
2021/06/19 03:28:23;;;;;;;10.70;7.43;;;;;;;21.38;65.60;101046.88;5112618;27;20204;-74
2021/06/19 03:30:51;;;;;;;11.23;7.60;;;;;;;21.43;65.89;101054.56;5109465;28;20260;-74
2021/06/19 03:33:20;;;;;;;12.33;7.80;;;;;;;21.62;65.38;101073.41;5112944;28;20261;-74
2021/06/19 03:35:48;;;;;;;9.43;7.27;;;;;;;21.56;66.26;101071.34;5112709;28;20204;-73
2021/06/19 03:38:18;;;;;;;12.90;8.17;;;;;;;21.56;66.18;101065.88;5111518;28;20858;-73
2021/06/19 03:40:46;;;;;;;10.90;7.37;;;;;;;21.59;66.43;101063.66;5111549;28;20224;-74
2021/06/19 03:43:16;;;;;;;12.47;7.70;;;;;;;21.75;65.99;101065.59;5104432;28;20196;-74
2021/06/19 03:45:44;;;;;;;9.97;6.57;;;;;;;21.67;66.76;101074.63;5107930;28;20642;-74
2021/06/19 03:48:12;;;;;;;13.67;7.57;;;;;;;21.62;66.35;101048.81;5111915;27;20196;-73
2021/06/19 03:50:40;;;;;;;11.73;7.47;;;;;;;21.64;66.67;101071.38;5112506;28;20557;-74
2021/06/19 03:53:08;;;;;;;16.07;7.00;;;;;;;21.31;67.04;101056.75;5098213;28;20191;-73
2021/06/19 03:55:37;;;;;;;12.67;6.30;;;;;;;21.34;67.08;101067.34;5112525;28;20208;-73
2021/06/19 03:58:05;;;;;;;8.73;6.43;;;;;;;21.48;67.37;101069.47;5113263;27;20196;-73
2021/06/19 04:00:34;;;;;;;10.67;6.47;;;;;;;21.52;66.75;101068.09;5112055;28;20222;-73
2021/06/19 04:03:04;;;;;;;7.60;6.03;;;;;;;21.27;67.05;101063.56;5106871;28;20299;-74
2021/06/19 04:05:32;;;;;;;12.17;6.27;;;;;;;21.26;67.37;101062.72;5109377;28;20192;-74
2021/06/19 04:08:01;;;;;;;8.47;6.10;;;;;;;21.18;67.45;101062.66;5109636;28;20204;-73
2021/06/19 04:10:29;;;;;;;8.37;6.07;;;;;;;21.05;67.39;101062.25;5106235;27;20195;-73
2021/06/19 04:12:57;;;;;;;13.33;5.97;;;;;;;20.88;68.19;101036.75;5111980;28;20530;-73
2021/06/19 04:15:26;;;;;;;8.20;5.50;;;;;;;21.00;67.72;101048.25;5110525;28;20792;-73
2021/06/19 04:17:55;;;;;;;6.03;4.97;;;;;;;20.93;67.65;101041.72;5112133;28;20200;-73
2021/06/19 04:20:24;;;;;;;7.00;4.80;;;;;;;20.96;67.40;101049.59;5106687;28;20569;-72
2021/06/19 04:22:52;;;;;;;6.40;4.90;;;;;;;20.81;67.76;101049.34;5127637;27;20265;-73
2021/06/19 04:25:20;;;;;;;5.00;3.90;;;;;;;20.86;67.78;101048.88;5111948;28;20200;-73
2021/06/19 04:27:51;;;;;;;5.63;4.63;;;;;;;21.01;67.07;101041.75;5096410;28;20261;-73
2021/06/19 04:30:21;;;;;;;7.50;4.40;;;;;;;20.87;67.51;101072.44;5098959;28;20204;-73
2021/06/19 04:32:50;;;;;;;8.50;4.30;;;;;;;20.54;67.15;101057.72;5111094;28;20188;-73
2021/06/19 04:35:20;;;;;;;5.97;4.17;;;;;;;20.27;66.52;101032.28;5111720;28;20540;-73
2021/06/19 04:37:48;;;;;;;6.07;4.07;;;;;;;20.54;66.57;101053.13;5111580;28;20196;-73
2021/06/19 04:40:21;;;;;;;6.30;3.43;;;;;;;20.51;66.95;101053.47;5111959;28;20886;-73
2021/06/19 04:42:57;;;;;;;7.73;3.43;;;;;;;20.23;66.75;101021.84;5111502;28;20196;-73
2021/06/19 04:45:26;;;;;;;4.43;3.33;;;;;;;20.39;66.95;101046.50;5111731;28;20192;-73
2021/06/19 04:47:58;;;;;;;5.00;3.43;;;;;;;20.40;66.27;101045.53;5111317;28;20206;-74
2021/06/19 04:50:28;;;;;;;4.30;3.13;;;;;;;20.15;65.78;101025.34;5111391;28;20826;-74
2021/06/19 04:52:56;;;;;;;12.33;3.50;;;;;;;20.13;65.96;101035.56;5111376;28;20203;-74
2021/06/19 04:55:24;;;;;;;4.80;3.23;;;;;;;20.39;65.46;101058.28;5105166;28;20215;-74
2021/06/19 04:57:56;;;;;;;5.10;3.10;;;;;;;20.52;65.50;101067.97;5106944;28;20229;-74
2021/06/19 05:00:25;;;;;;;7.33;3.00;;;;;;;20.42;65.97;101071.63;5111109;28;20296;-74
2021/06/19 05:02:54;;;;;;;4.63;2.70;;;;;;;20.55;65.70;101060.31;5100743;28;20729;-74
2021/06/19 05:05:23;;;;;;;5.07;2.70;;;;;;;20.71;65.22;101082.22;5110828;28;20256;-74
2021/06/19 05:07:53;;;;;;;2.90;2.60;;;;;;;20.92;64.46;101090.03;5113777;27;20203;-74
2021/06/19 05:10:21;;;;;;;3.30;2.63;;;;;;;20.87;63.74;101084.19;5104575;28;20200;-73
2021/06/19 05:12:50;;;;;;;3.23;2.60;;;;;;;21.01;63.07;101093.66;5102819;28;20196;-73
2021/06/19 05:15:24;;;;;;;3.80;2.77;;;;;;;21.10;63.45;101089.94;5108376;28;20232;-73
2021/06/19 05:17:54;;;;;;;2.83;2.53;;;;;;;21.27;62.14;101069.91;5111192;28;20200;-74
2021/06/19 05:20:23;;;;;;;3.73;2.60;;;;;;;21.51;62.18;101090.13;5125518;27;20215;-73
2021/06/19 05:22:52;;;;;;;3.50;2.60;;;;;;;21.40;61.83;101074.88;5110885;28;20200;-74
2021/06/19 05:25:20;;;;;;;3.20;2.80;;;;;;;21.55;60.94;101083.31;5110362;28;20673;-73
2021/06/19 05:27:49;;;;;;;3.80;2.30;;;;;;;21.86;60.43;101084.41;5110300;28;20207;-73
2021/06/19 05:30:18;;;;;;;2.63;2.33;;;;;;;22.05;59.91;101074.19;5109413;28;20200;-73
2021/06/19 05:32:46;;;;;;;2.40;2.20;;;;;;;22.26;60.74;101074.53;5110015;28;20206;-73
2021/06/19 05:35:14;;;;;;;2.50;2.30;;;;;;;22.35;60.16;101079.00;5110280;28;20215;-73
2021/06/19 05:37:43;;;;;;;3.20;2.57;;;;;;;22.23;59.52;101083.06;5110098;28;20204;-73
2021/06/19 05:40:12;;;;;;;3.37;2.73;;;;;;;22.25;59.29;101089.22;5109941;28;20227;-73
2021/06/19 05:42:41;;;;;;;5.27;2.30;;;;;;;22.08;58.89;101091.13;5109352;28;20220;-73
2021/06/19 05:45:10;;;;;;;2.70;2.50;;;;;;;22.36;59.13;101097.13;5109450;28;20774;-73
2021/06/19 05:47:38;;;;;;;4.77;2.63;;;;;;;22.52;58.83;101083.41;5110169;28;20204;-73
2021/06/19 05:50:08;;;;;;;3.80;2.70;;;;;;;22.75;58.51;101085.41;5110410;28;20200;-74
2021/06/19 05:52:36;;;;;;;4.03;3.13;;;;;;;22.94;58.47;101074.06;5110595;28;20241;-73
2021/06/19 05:55:05;;;;;;;2.70;2.50;;;;;;;22.85;57.07;101070.53;5110063;28;20214;-73
2021/06/19 05:57:35;;;;;;;3.60;2.57;;;;;;;22.54;57.47;101029.31;5112115;27;20232;-73
2021/06/19 06:00:05;;;;;;;3.10;2.63;;;;;;;22.58;57.84;101030.69;5110065;28;20200;-73
2021/06/19 06:02:40;;;;;;;3.63;2.80;;;;;;;23.06;58.52;101061.72;5110114;28;20292;-74
2021/06/19 06:05:10;;;;;;;3.33;2.43;;;;;;;22.92;57.33;101052.34;5103618;28;20378;-73
2021/06/19 06:07:38;;;;;;;4.80;2.70;;;;;;;23.15;57.50;101066.13;5109886;28;20253;-74
2021/06/19 06:10:08;;;;;;;2.80;2.60;;;;;;;23.24;57.09;101048.59;5108738;28;20728;-72
2021/06/19 06:12:37;;;;;;;3.10;2.73;;;;;;;23.39;57.05;101070.66;5095639;28;20532;-73
2021/06/19 06:15:08;;;;;;;10.77;3.30;;;;;;;23.29;56.59;101060.94;5109445;28;20232;-74
2021/06/19 06:17:37;;;;;;;8.53;3.40;;;;;;;22.85;56.27;101058.72;5108952;28;20593;-74
2021/06/19 06:20:06;;;;;;;3.57;2.90;;;;;;;23.00;57.09;101056.97;5108300;28;20195;-74
2021/06/19 06:22:34;;;;;;;3.17;2.53;;;;;;;23.25;57.00;101063.16;5108976;28;20228;-73
2021/06/19 06:25:03;;;;;;;3.67;2.70;;;;;;;23.15;56.53;101068.03;5109212;28;20204;-74
2021/06/19 06:27:31;;;;;;;4.00;2.60;;;;;;;23.26;55.97;101064.03;5109038;28;20191;-73
2021/06/19 06:30:00;;;;;;;3.13;2.60;;;;;;;23.31;56.73;101072.59;5109683;28;20231;-74
2021/06/19 06:32:29;;;;;;;3.20;2.60;;;;;;;23.20;55.79;101077.41;5109640;28;20195;-74
2021/06/19 06:34:58;;;;;;;3.10;2.67;;;;;;;23.36;56.58;101053.72;5110053;28;20188;-74
2021/06/19 06:37:26;;;;;;;5.27;2.53;;;;;;;23.79;56.72;101069.56;5108422;28;20208;-74
2021/06/19 06:39:54;;;;;;;5.57;2.70;;;;;;;23.99;55.56;101063.59;5108710;28;20260;-74
2021/06/19 06:42:22;;;;;;;3.33;2.77;;;;;;;24.18;55.66;101063.09;5107666;28;20632;-74
2021/06/19 06:44:50;;;;;;;4.87;2.77;;;;;;;24.30;54.17;101072.63;5097232;28;20211;-74
2021/06/19 06:47:20;;;;;;;2.83;2.60;;;;;;;24.56;53.97;101076.88;5109561;28;20590;-74
2021/06/19 06:49:48;;;;;;;4.30;3.03;;;;;;;24.79;53.32;101066.63;5110300;28;20203;-74
2021/06/19 06:52:16;;;;;;;5.60;2.97;;;;;;;24.64;53.80;101052.06;5110211;28;20200;-74
2021/06/19 06:54:45;;;;;;;3.50;2.73;;;;;;;24.54;53.90;101049.59;5110640;28;20679;-75
2021/06/19 06:57:13;;;;;;;5.17;3.00;;;;;;;24.60;53.27;101051.56;5112726;28;20211;-74
2021/06/19 06:59:41;;;;;;;3.37;3.07;;;;;;;24.43;53.83;101050.03;5112309;28;20220;-74
2021/06/19 07:02:09;;;;;;;3.20;2.60;;;;;;;24.53;53.60;101044.28;5097481;28;20216;-74
2021/06/19 07:04:39;;;;;;;3.00;2.80;;;;;;;24.75;53.93;101048.81;5111756;28;20302;-74
2021/06/19 07:07:07;;;;;;;3.10;2.80;;;;;;;25.03;53.29;101040.78;5128231;27;20216;-73
2021/06/19 07:09:35;;;;;;;5.00;3.40;;;;;;;25.30;53.66;101034.59;5098438;28;20200;-73
2021/06/19 07:12:04;;;;;;;3.40;3.10;;;;;;;25.73;52.98;101042.13;5102938;28;20204;-74
2021/06/19 07:14:32;;;;;;;6.45;3.13;;;;;;;25.82;51.51;101050.03;5112881;28;20271;-74
2021/06/19 07:17:01;;;;;;;4.07;3.10;;;;;;;26.05;51.09;101049.00;5113262;28;20204;-74
2021/06/19 07:19:29;;;;;;;5.88;3.10;;;;;;;26.57;51.01;101046.69;5111258;28;20192;-74
2021/06/19 07:21:58;;;;;;;3.28;2.90;;;;;;;26.82;49.90;101049.81;5112426;28;20212;-73
2021/06/19 07:24:26;;;;;;;8.82;3.10;;;;;;;27.09;49.48;101048.09;5111980;28;20275;-74
2021/06/19 07:26:54;;;;;;;5.03;3.13;;;;;;;26.97;48.81;101049.72;5111706;28;20235;-74
2021/06/19 07:29:22;;;;;;;3.28;3.00;;;;;;;27.09;49.10;101044.50;5109135;28;20200;-74
2021/06/19 07:31:50;;;;;;;3.72;3.28;;;;;;;27.52;48.56;101051.44;5101325;28;20227;-74
2021/06/19 07:34:19;;;;;;;3.63;3.25;;;;;;;27.27;46.64;101046.69;5109494;28;20204;-74
2021/06/19 07:36:47;;;;;;;5.07;3.25;;;;;;;27.19;47.29;101039.44;5111353;28;20188;-74
2021/06/19 07:39:16;;;;;;;6.05;3.38;;;;;;;27.15;47.15;101049.19;5110374;28;20216;-74
2021/06/19 07:41:44;;;;;;;3.90;3.50;;;;;;;27.30;47.37;101051.81;5108812;28;20200;-74
2021/06/19 07:44:14;;;;;;;4.10;3.63;;;;;;;27.73;47.44;101055.16;5126545;27;20607;-72
2021/06/19 07:46:42;;;;;;;4.72;3.55;;;;;;;27.81;47.96;101021.81;5110272;28;20198;-73
2021/06/19 07:49:11;;;;;;;6.22;3.90;;;;;;;27.81;47.96;101044.75;5107357;28;20208;-74
2021/06/19 07:51:39;;;;;;;3.72;3.40;;;;;;;28.24;47.49;101038.00;5110433;28;20301;-73
2021/06/19 07:54:07;;;;;;;5.32;3.47;;;;;;;28.34;47.11;101032.94;5097265;28;20689;-73
2021/06/19 07:56:36;;;;;;;4.72;3.72;;;;;;;27.94;47.79;101030.13;5110904;28;20306;-73
2021/06/19 07:59:05;;;;;;;4.63;4.15;;;;;;;27.84;48.20;101027.75;5109883;28;20208;-73
2021/06/19 08:01:33;;;;;;;6.47;4.18;;;;;;;27.92;48.55;101029.50;5107641;28;20643;-74
2021/06/19 08:04:01;;;;;;;5.43;4.43;;;;;;;28.23;47.80;101014.22;5111199;27;20695;-73
2021/06/19 08:06:29;;;;;;;6.43;4.68;;;;;;;28.34;46.59;101016.34;5108030;28;20211;-73
2021/06/19 08:09:01;;;;;;;8.10;4.95;;;;;;;28.13;46.76;101020.13;5109041;28;20207;-73
2021/06/19 08:11:30;;;;;;;6.70;4.53;;;;;;;27.52;47.55;100982.44;5108330;28;20666;-73
2021/06/19 08:13:59;;;;;;;5.43;4.80;;;;;;;27.66;48.08;101001.84;5110456;28;20198;-73
2021/06/19 08:16:28;;;;;;;5.22;4.70;;;;;;;27.67;47.84;101007.16;5107223;28;20259;-73
2021/06/19 08:18:56;;;;;;;7.05;5.43;;;;;;;27.49;48.32;101002.19;5110507;28;20204;-73
2021/06/19 08:21:24;;;;;;;9.23;5.40;;;;;;;27.54;48.10;100999.66;5109712;28;20580;-73
2021/06/19 08:23:52;;;;;;;8.85;5.53;;;;;;;27.53;48.51;100992.44;5108604;28;20234;-73
2021/06/19 08:26:20;;;;;;;8.15;5.80;;;;;;;27.40;48.45;100992.41;5110484;27;20548;-72
2021/06/19 08:28:48;;;;;;;6.13;5.05;;;;;;;27.43;48.28;100980.94;5108790;28;20208;-73
2021/06/19 08:31:18;;;;;;;6.75;5.20;;;;;;;27.44;47.92;100981.81;5110564;28;20826;-73
2021/06/19 08:33:46;;;;;;;7.63;5.55;;;;;;;27.26;49.72;100987.91;5109677;28;20275;-73
2021/06/19 08:36:14;;;;;;;7.07;5.38;;;;;;;27.13;49.35;100976.81;5108403;28;20914;-73
2021/06/19 08:38:42;;;;;;;7.38;5.00;;;;;;;26.87;50.14;100980.28;5111065;28;20196;-73
2021/06/19 08:41:11;;;;;;;6.50;5.20;;;;;;;26.83;49.99;100976.25;5099060;28;20265;-74
2021/06/19 08:43:41;;;;;;;7.75;5.13;;;;;;;26.47;50.50;100965.44;5112133;28;20223;-74
2021/06/19 08:46:10;;;;;;;7.45;5.22;;;;;;;26.82;49.96;100960.75;5123270;27;20204;-74
2021/06/19 08:48:40;;;;;;;6.88;5.35;;;;;;;26.37;50.21;100942.94;5112072;28;20682;-74
2021/06/19 08:51:08;;;;;;;8.13;5.40;;;;;;;26.74;50.29;100958.19;5111914;28;20204;-74
2021/06/19 08:53:36;;;;;;;7.75;4.78;;;;;;;27.07;49.53;100947.31;5111288;28;20199;-74
2021/06/19 08:56:14;;;;;;;6.47;5.03;;;;;;;27.48;48.61;100955.47;5111817;28;20198;-74
2021/06/19 08:58:42;;;;;;;6.85;4.93;;;;;;;27.65;48.73;100940.28;5110676;28;20265;-74
2021/06/19 09:01:10;;;;;;;8.98;5.10;;;;;;;26.97;47.61;100908.25;5110528;28;20857;-73
2021/06/19 09:03:40;;;;;;;6.68;4.80;;;;;;;27.05;48.29;100938.41;5110498;28;20281;-73
2021/06/19 09:06:20;;;;;;;5.82;4.70;;;;;;;27.12;48.88;100918.06;5111414;28;20192;-73
2021/06/19 09:09:07;;;;;;;5.55;4.80;;;;;;;26.85;48.59;100968.63;5110917;28;20287;-74
2021/06/19 09:11:38;;;;;;;6.40;4.63;;;;;;;26.80;49.26;100941.66;5111395;28;20283;-74
2021/06/19 09:14:08;;;;;;;12.23;4.65;;;;;;;26.64;49.44;100965.97;5108389;28;20200;-74
2021/06/19 09:16:37;;;;;;;9.75;5.20;;;;;;;26.37;50.25;100954.81;5107342;28;20228;-73
2021/06/19 09:19:24;;;;;;;5.97;4.55;;;;;;;26.51;51.19;100977.75;5110500;28;20459;-72
2021/06/19 09:22:10;;;;;;;5.68;4.57;;;;;;;26.49;51.06;100983.47;5105416;28;20203;-74
2021/06/19 09:24:45;;;;;;;7.18;4.63;;;;;;;26.57;49.71;100976.94;5109880;28;20422;-73
2021/06/19 09:27:33;;;;;;;6.53;4.82;;;;;;;26.21;50.81;100966.94;5110292;28;20208;-73
2021/06/19 09:30:07;;;;;;;7.47;4.53;;;;;;;26.47;51.02;100979.22;5109395;28;20702;-73
2021/06/19 09:32:41;;;;;;;6.57;4.75;;;;;;;26.39;50.22;100973.88;5110068;28;20283;-73
2021/06/19 09:35:16;;;;;;;6.85;4.70;;;;;;;26.40;50.76;100975.56;5101505;28;20208;-74
2021/06/19 09:37:46;;;;;;;8.20;4.70;;;;;;;26.37;50.48;100987.84;5109802;28;20240;-74
2021/06/19 09:40:23;;;;;;;7.45;4.32;;;;;;;26.25;51.48;100992.16;5107398;28;20611;-74
2021/06/19 09:42:52;;;;;;;5.55;4.32;;;;;;;26.28;51.65;100973.31;5108255;28;20194;-74
2021/06/19 09:45:21;;;;;;;5.78;4.15;;;;;;;26.34;50.72;100965.38;5109222;28;20597;-73
2021/06/19 09:47:50;;;;;;;5.68;4.55;;;;;;;26.21;50.81;100966.94;5110513;28;20208;-74
2021/06/19 09:50:21;;;;;;;7.78;4.45;;;;;;;26.58;49.71;100938.16;5111416;28;20200;-73
2021/06/19 09:52:51;;;;;;;5.28;4.30;;;;;;;26.48;49.54;100976.25;5111205;28;20256;-73
2021/06/19 09:55:21;;;;;;;5.00;3.97;;;;;;;26.75;49.40;100966.25;5110968;28;20200;-73
2021/06/19 09:57:50;;;;;;;5.10;4.05;;;;;;;26.33;49.14;100960.84;5111268;28;20200;-73
2021/06/19 10:00:20;;;;;;;5.45;4.07;;;;;;;26.32;49.55;100965.50;5109771;28;20200;-73
2021/06/19 10:02:49;;;;;;;7.57;3.80;;;;;;;25.90;49.77;100969.22;5110931;28;20274;-73
2021/06/19 10:05:17;;;;;;;4.50;3.85;;;;;;;25.89;50.98;100962.88;5107916;28;20199;-73
2021/06/19 10:07:47;;;;;;;5.13;4.20;;;;;;;25.71;50.94;100940.47;5110305;28;20662;-73
2021/06/19 10:10:15;;;;;;;6.00;4.05;;;;;;;25.95;50.06;100969.47;5110736;28;20647;-73
2021/06/19 10:12:44;;;;;;;7.13;4.85;;;;;;;25.88;50.07;100963.06;5109835;28;20654;-73
2021/06/19 10:15:16;;;;;;;8.30;5.22;;;;;;;25.85;50.56;100963.47;5110741;28;20251;-73
2021/06/19 10:17:47;;;;;;;7.20;4.85;;;;;;;25.96;50.20;100954.66;5110089;28;20904;-74
2021/06/19 10:20:17;;;;;;;6.82;5.10;;;;;;;25.96;50.12;100966.50;5100878;28;20295;-73
2021/06/19 10:22:47;;;;;;;9.63;5.00;;;;;;;25.68;50.98;100963.72;5126039;27;20688;-73
2021/06/19 10:25:21;;;;;;;7.35;5.13;;;;;;;26.21;49.70;100975.19;5109748;28;20239;-73
2021/06/19 10:27:51;;;;;;;8.60;5.70;;;;;;;25.62;50.12;100974.63;5090386;28;20185;-73
2021/06/19 10:30:25;;;;;;;6.57;4.95;;;;;;;25.38;51.00;100948.38;5107423;28;20231;-73
2021/06/19 10:33:27;;;;;;;9.25;5.90;;;;;;;25.58;50.80;100929.31;5114690;27;20295;-74
2021/06/19 10:35:57;;;;;;;11.48;6.35;;;;;;;25.73;51.14;100946.66;5114243;28;20211;-73
2021/06/19 10:38:26;;;;;;;8.88;6.32;;;;;;;25.81;50.63;100938.25;5114729;28;20204;-73
2021/06/19 10:40:56;;;;;;;9.25;6.20;;;;;;;26.13;50.93;100933.19;5114735;28;20253;-73
2021/06/19 10:43:26;;;;;;;8.98;5.68;;;;;;;26.17;51.05;100940.84;5114820;28;20196;-73
2021/06/19 10:45:55;;;;;;;10.18;6.15;;;;;;;26.26;50.59;100931.38;5114580;28;20223;-73
2021/06/19 10:48:33;;;;;;;9.27;6.20;;;;;;;26.47;50.83;100927.72;5114406;28;20208;-74
2021/06/19 10:51:20;;;;;;;8.02;5.38;;;;;;;26.69;49.95;100927.63;5114859;28;20199;-73
2021/06/19 10:54:13;;;;;;;7.13;5.55;;;;;;;26.69;49.37;100924.88;5109079;28;20245;-74
2021/06/19 10:56:45;;;;;;;7.00;5.57;;;;;;;26.97;49.59;100908.25;5115836;27;20212;-74
2021/06/19 10:59:18;;;;;;;7.35;5.13;;;;;;;26.74;48.77;100892.88;5113566;28;20208;-73
2021/06/19 11:01:46;;;;;;;5.65;4.75;;;;;;;27.10;48.88;100913.81;5114205;28;20211;-73
2021/06/19 11:04:41;;;;;;;8.25;4.70;;;;;;;27.23;48.46;100911.06;5114237;28;20215;-73
2021/06/19 11:07:11;;;;;;;8.98;5.03;;;;;;;27.19;48.39;100907.88;5114789;28;20200;-74
2021/06/19 11:09:42;;;;;;;6.47;4.88;;;;;;;27.50;48.14;100901.78;5114283;28;20257;-73
2021/06/19 11:12:25;;;;;;;8.77;5.05;;;;;;;27.54;47.53;100897.53;5113836;28;20243;-74
2021/06/19 11:14:59;;;;;;;6.18;4.70;;;;;;;27.42;47.54;100901.13;5114249;28;20216;-74
2021/06/19 11:17:47;;;;;;;6.50;4.88;;;;;;;27.21;47.35;100869.91;5110786;28;20197;-74
2021/06/19 11:20:27;;;;;;;9.60;4.90;;;;;;;27.30;47.98;100892.66;5105197;28;20203;-74
2021/06/19 11:23:06;;;;;;;8.05;4.55;;;;;;;27.36;47.26;100875.25;5113727;28;20211;-73
2021/06/19 11:26:01;;;;;;;6.13;4.47;;;;;;;27.36;48.08;100880.78;5113172;28;20216;-73
2021/06/19 11:28:31;;;;;;;6.45;4.70;;;;;;;27.50;48.03;100882.47;5106928;28;20199;-74
2021/06/19 11:31:01;;;;;;;5.88;4.85;;;;;;;27.42;48.14;100882.69;5113606;27;20203;-74
2021/06/19 11:33:47;;;;;;;6.20;4.50;;;;;;;27.41;48.65;100864.44;5113806;28;20210;-74
2021/06/19 11:36:42;;;;;;;6.10;4.68;;;;;;;27.31;47.80;100855.72;5100582;28;20200;-74